sensor_id;sensor_type;location;lat;lon;timestamp;P1;durP1;ratioP1;P2;durP2;ratioP2
51288;SDS011;37372;52.294;5.152;2022-12-15T00:01:35;34.17;;;15.15;;
51288;SDS011;37372;52.294;5.152;2022-12-15T00:04:19;25.10;;;13.73;;
51288;SDS011;37372;52.294;5.152;2022-12-15T00:07:03;22.87;;;11.97;;
51288;SDS011;37372;52.294;5.152;2022-12-15T00:09:47;23.40;;;11.80;;
51288;SDS011;37372;52.294;5.152;2022-12-15T00:12:31;25.75;;;12.25;;
51288;SDS011;37372;52.294;5.152;2022-12-15T00:15:15;22.90;;;11.43;;
51288;SDS011;37372;52.294;5.152;2022-12-15T00:18:03;28.70;;;13.15;;
51288;SDS011;37372;52.294;5.152;2022-12-15T00:20:48;25.05;;;11.65;;
51288;SDS011;37372;52.294;5.152;2022-12-15T00:23:31;24.20;;;11.68;;
51288;SDS011;37372;52.294;5.152;2022-12-15T00:26:16;25.00;;;12.33;;
51288;SDS011;37372;52.294;5.152;2022-12-15T00:29:00;24.33;;;12.95;;
51288;SDS011;37372;52.294;5.152;2022-12-15T00:31:44;25.47;;;13.63;;
51288;SDS011;37372;52.294;5.152;2022-12-15T00:34:28;28.15;;;14.02;;
51288;SDS011;37372;52.294;5.152;2022-12-15T00:37:12;24.00;;;12.13;;
51288;SDS011;37372;52.294;5.152;2022-12-15T00:39:55;23.35;;;11.90;;
51288;SDS011;37372;52.294;5.152;2022-12-15T00:42:28;22.95;;;11.65;;
51288;SDS011;37372;52.294;5.152;2022-12-15T00:44:54;20.27;;;11.80;;
51288;SDS011;37372;52.294;5.152;2022-12-15T00:47:19;21.80;;;10.80;;
51288;SDS011;37372;52.294;5.152;2022-12-15T00:49:45;23.15;;;12.55;;
51288;SDS011;37372;52.294;5.152;2022-12-15T00:52:29;23.70;;;11.77;;
51288;SDS011;37372;52.294;5.152;2022-12-15T00:55:13;21.52;;;9.82;;
51288;SDS011;37372;52.294;5.152;2022-12-15T00:57:56;22.63;;;12.27;;
51288;SDS011;37372;52.294;5.152;2022-12-15T01:00:41;23.93;;;11.83;;
51288;SDS011;37372;52.294;5.152;2022-12-15T01:03:24;22.65;;;11.63;;
51288;SDS011;37372;52.294;5.152;2022-12-15T01:06:13;27.27;;;13.27;;
51288;SDS011;37372;52.294;5.152;2022-12-15T01:08:59;21.38;;;11.10;;
51288;SDS011;37372;52.294;5.152;2022-12-15T01:11:44;23.00;;;12.45;;
51288;SDS011;37372;52.294;5.152;2022-12-15T01:14:28;22.85;;;13.20;;
51288;SDS011;37372;52.294;5.152;2022-12-15T01:19:56;19.95;;;11.07;;
51288;SDS011;37372;52.294;5.152;2022-12-15T01:22:38;27.55;;;11.85;;
51288;SDS011;37372;52.294;5.152;2022-12-15T01:25:05;25.38;;;12.20;;
51288;SDS011;37372;52.294;5.152;2022-12-15T01:27:31;23.10;;;12.70;;
51288;SDS011;37372;52.294;5.152;2022-12-15T01:29:57;27.02;;;13.70;;
51288;SDS011;37372;52.294;5.152;2022-12-15T01:32:22;23.83;;;13.38;;
51288;SDS011;37372;52.294;5.152;2022-12-15T01:34:47;21.08;;;13.15;;
51288;SDS011;37372;52.294;5.152;2022-12-15T01:37:13;21.88;;;13.52;;
51288;SDS011;37372;52.294;5.152;2022-12-15T01:39:38;23.83;;;12.90;;
51288;SDS011;37372;52.294;5.152;2022-12-15T01:42:22;27.70;;;13.35;;
51288;SDS011;37372;52.294;5.152;2022-12-15T01:44:49;22.83;;;12.68;;
51288;SDS011;37372;52.294;5.152;2022-12-15T01:47:16;23.10;;;11.80;;
51288;SDS011;37372;52.294;5.152;2022-12-15T01:49:41;26.25;;;12.60;;
51288;SDS011;37372;52.294;5.152;2022-12-15T01:52:11;20.60;;;12.57;;
51288;SDS011;37372;52.294;5.152;2022-12-15T01:54:51;24.65;;;11.32;;
51288;SDS011;37372;52.294;5.152;2022-12-15T01:57:21;22.80;;;12.73;;
51288;SDS011;37372;52.294;5.152;2022-12-15T01:59:52;23.48;;;12.32;;
51288;SDS011;37372;52.294;5.152;2022-12-15T02:02:21;25.30;;;12.82;;
51288;SDS011;37372;52.294;5.152;2022-12-15T02:04:51;31.60;;;13.43;;
51288;SDS011;37372;52.294;5.152;2022-12-15T02:07:17;21.70;;;11.32;;
51288;SDS011;37372;52.294;5.152;2022-12-15T02:09:44;22.60;;;12.85;;
51288;SDS011;37372;52.294;5.152;2022-12-15T02:17:36;21.55;;;11.23;;
51288;SDS011;37372;52.294;5.152;2022-12-15T02:20:24;26.83;;;13.00;;
51288;SDS011;37372;52.294;5.152;2022-12-15T02:31:34;22.55;;;10.90;;
51288;SDS011;37372;52.294;5.152;2022-12-15T02:36:56;28.33;;;12.73;;
51288;SDS011;37372;52.294;5.152;2022-12-15T02:39:25;31.70;;;12.82;;
51288;SDS011;37372;52.294;5.152;2022-12-15T02:41:51;23.15;;;12.48;;
51288;SDS011;37372;52.294;5.152;2022-12-15T02:44:30;23.70;;;11.77;;
51288;SDS011;37372;52.294;5.152;2022-12-15T02:52:56;26.27;;;13.13;;
51288;SDS011;37372;52.294;5.152;2022-12-15T03:01:35;20.92;;;12.18;;
51288;SDS011;37372;52.294;5.152;2022-12-15T03:04:14;20.10;;;11.85;;
51288;SDS011;37372;52.294;5.152;2022-12-15T03:06:40;21.48;;;12.30;;
51288;SDS011;37372;52.294;5.152;2022-12-15T03:09:06;23.45;;;12.32;;
51288;SDS011;37372;52.294;5.152;2022-12-15T03:11:32;22.92;;;12.45;;
51288;SDS011;37372;52.294;5.152;2022-12-15T03:13:57;23.10;;;12.27;;
51288;SDS011;37372;52.294;5.152;2022-12-15T03:16:23;20.55;;;11.90;;
51288;SDS011;37372;52.294;5.152;2022-12-15T03:18:48;24.15;;;11.98;;
51288;SDS011;37372;52.294;5.152;2022-12-15T03:21:15;20.35;;;11.63;;
51288;SDS011;37372;52.294;5.152;2022-12-15T03:23:41;23.40;;;11.57;;
51288;SDS011;37372;52.294;5.152;2022-12-15T03:26:06;19.80;;;11.07;;
51288;SDS011;37372;52.294;5.152;2022-12-15T03:28:32;24.30;;;12.93;;
51288;SDS011;37372;52.294;5.152;2022-12-15T03:30:58;21.73;;;12.00;;
51288;SDS011;37372;52.294;5.152;2022-12-15T03:33:23;18.45;;;9.30;;
51288;SDS011;37372;52.294;5.152;2022-12-15T03:35:49;21.90;;;11.60;;
51288;SDS011;37372;52.294;5.152;2022-12-15T03:38:15;24.38;;;11.10;;
51288;SDS011;37372;52.294;5.152;2022-12-15T03:40:41;22.15;;;12.15;;
51288;SDS011;37372;52.294;5.152;2022-12-15T03:43:06;20.77;;;10.98;;
51288;SDS011;37372;52.294;5.152;2022-12-15T03:45:31;19.63;;;11.10;;
51288;SDS011;37372;52.294;5.152;2022-12-15T03:47:57;18.88;;;10.48;;
51288;SDS011;37372;52.294;5.152;2022-12-15T03:50:23;18.25;;;10.70;;
51288;SDS011;37372;52.294;5.152;2022-12-15T03:52:50;25.95;;;12.23;;
51288;SDS011;37372;52.294;5.152;2022-12-15T03:55:17;20.80;;;11.68;;
51288;SDS011;37372;52.294;5.152;2022-12-15T03:57:43;23.77;;;10.75;;
51288;SDS011;37372;52.294;5.152;2022-12-15T04:00:09;20.25;;;11.18;;
51288;SDS011;37372;52.294;5.152;2022-12-15T04:02:39;21.67;;;12.02;;
51288;SDS011;37372;52.294;5.152;2022-12-15T04:05:05;18.17;;;10.90;;
51288;SDS011;37372;52.294;5.152;2022-12-15T04:07:31;20.85;;;10.57;;
51288;SDS011;37372;52.294;5.152;2022-12-15T04:09:56;23.17;;;11.60;;
51288;SDS011;37372;52.294;5.152;2022-12-15T04:12:22;22.23;;;10.50;;
51288;SDS011;37372;52.294;5.152;2022-12-15T04:14:47;19.30;;;9.93;;
51288;SDS011;37372;52.294;5.152;2022-12-15T04:17:12;20.73;;;10.93;;
51288;SDS011;37372;52.294;5.152;2022-12-15T04:19:38;24.90;;;12.15;;
51288;SDS011;37372;52.294;5.152;2022-12-15T04:22:22;24.00;;;10.45;;
51288;SDS011;37372;52.294;5.152;2022-12-15T04:24:48;21.20;;;10.02;;
51288;SDS011;37372;52.294;5.152;2022-12-15T04:27:32;21.25;;;10.38;;
51288;SDS011;37372;52.294;5.152;2022-12-15T04:30:16;20.10;;;11.57;;
51288;SDS011;37372;52.294;5.152;2022-12-15T04:33:00;21.30;;;11.35;;
51288;SDS011;37372;52.294;5.152;2022-12-15T04:35:46;17.00;;;9.68;;
51288;SDS011;37372;52.294;5.152;2022-12-15T04:38:30;23.05;;;10.85;;
51288;SDS011;37372;52.294;5.152;2022-12-15T04:41:14;20.07;;;10.60;;
51288;SDS011;37372;52.294;5.152;2022-12-15T04:44:00;20.42;;;10.15;;
51288;SDS011;37372;52.294;5.152;2022-12-15T04:46:44;17.85;;;10.20;;
51288;SDS011;37372;52.294;5.152;2022-12-15T04:49:28;22.45;;;10.25;;
51288;SDS011;37372;52.294;5.152;2022-12-15T04:52:12;21.05;;;10.88;;
51288;SDS011;37372;52.294;5.152;2022-12-15T04:54:55;25.48;;;12.15;;
51288;SDS011;37372;52.294;5.152;2022-12-15T04:57:40;19.30;;;11.20;;
51288;SDS011;37372;52.294;5.152;2022-12-15T05:00:24;22.02;;;10.27;;
51288;SDS011;37372;52.294;5.152;2022-12-15T05:03:07;14.82;;;9.82;;
51288;SDS011;37372;52.294;5.152;2022-12-15T05:05:51;16.83;;;10.35;;
51288;SDS011;37372;52.294;5.152;2022-12-15T05:08:36;17.63;;;8.45;;
51288;SDS011;37372;52.294;5.152;2022-12-15T05:11:20;22.45;;;11.93;;
51288;SDS011;37372;52.294;5.152;2022-12-15T05:14:04;19.40;;;10.95;;
51288;SDS011;37372;52.294;5.152;2022-12-15T05:16:48;21.33;;;10.48;;
51288;SDS011;37372;52.294;5.152;2022-12-15T05:19:32;22.30;;;10.88;;
51288;SDS011;37372;52.294;5.152;2022-12-15T05:22:16;18.67;;;9.65;;
51288;SDS011;37372;52.294;5.152;2022-12-15T05:24:59;16.40;;;9.60;;
51288;SDS011;37372;52.294;5.152;2022-12-15T05:27:43;22.48;;;10.40;;
51288;SDS011;37372;52.294;5.152;2022-12-15T05:30:27;21.27;;;10.13;;
51288;SDS011;37372;52.294;5.152;2022-12-15T05:33:13;19.08;;;9.50;;
51288;SDS011;37372;52.294;5.152;2022-12-15T05:35:38;19.65;;;10.85;;
51288;SDS011;37372;52.294;5.152;2022-12-15T05:38:04;19.67;;;10.15;;
51288;SDS011;37372;52.294;5.152;2022-12-15T05:40:29;21.30;;;10.77;;
51288;SDS011;37372;52.294;5.152;2022-12-15T05:42:58;21.83;;;11.65;;
51288;SDS011;37372;52.294;5.152;2022-12-15T05:45:24;21.55;;;12.30;;
51288;SDS011;37372;52.294;5.152;2022-12-15T05:47:51;22.42;;;11.25;;
51288;SDS011;37372;52.294;5.152;2022-12-15T05:50:16;24.10;;;12.30;;
51288;SDS011;37372;52.294;5.152;2022-12-15T05:52:41;31.95;;;12.63;;
51288;SDS011;37372;52.294;5.152;2022-12-15T05:55:07;24.20;;;10.93;;
51288;SDS011;37372;52.294;5.152;2022-12-15T05:57:32;25.15;;;11.75;;
51288;SDS011;37372;52.294;5.152;2022-12-15T05:59:58;22.25;;;11.20;;
51288;SDS011;37372;52.294;5.152;2022-12-15T06:02:23;23.33;;;10.75;;
51288;SDS011;37372;52.294;5.152;2022-12-15T06:04:48;20.40;;;11.32;;
51288;SDS011;37372;52.294;5.152;2022-12-15T06:07:14;22.48;;;11.07;;
51288;SDS011;37372;52.294;5.152;2022-12-15T06:09:39;19.77;;;10.85;;
51288;SDS011;37372;52.294;5.152;2022-12-15T06:12:04;17.38;;;9.93;;
51288;SDS011;37372;52.294;5.152;2022-12-15T06:14:30;20.73;;;10.52;;
51288;SDS011;37372;52.294;5.152;2022-12-15T06:16:55;20.30;;;10.30;;
51288;SDS011;37372;52.294;5.152;2022-12-15T06:19:21;24.70;;;11.25;;
51288;SDS011;37372;52.294;5.152;2022-12-15T06:21:46;21.58;;;10.63;;
51288;SDS011;37372;52.294;5.152;2022-12-15T06:24:11;20.45;;;10.55;;
51288;SDS011;37372;52.294;5.152;2022-12-15T06:26:37;21.40;;;11.63;;
51288;SDS011;37372;52.294;5.152;2022-12-15T06:29:05;18.88;;;10.50;;
51288;SDS011;37372;52.294;5.152;2022-12-15T06:31:32;23.15;;;10.25;;
51288;SDS011;37372;52.294;5.152;2022-12-15T06:34:01;26.05;;;10.50;;
51288;SDS011;37372;52.294;5.152;2022-12-15T06:36:28;25.20;;;10.73;;
51288;SDS011;37372;52.294;5.152;2022-12-15T06:38:56;27.25;;;10.73;;
51288;SDS011;37372;52.294;5.152;2022-12-15T06:41:26;18.98;;;9.73;;
51288;SDS011;37372;52.294;5.152;2022-12-15T06:43:53;19.27;;;9.75;;
51288;SDS011;37372;52.294;5.152;2022-12-15T06:46:22;21.17;;;12.00;;
51288;SDS011;37372;52.294;5.152;2022-12-15T06:48:48;20.75;;;10.68;;
51288;SDS011;37372;52.294;5.152;2022-12-15T06:51:14;18.25;;;10.25;;
51288;SDS011;37372;52.294;5.152;2022-12-15T06:53:41;22.98;;;11.43;;
51288;SDS011;37372;52.294;5.152;2022-12-15T06:56:14;23.38;;;10.27;;
51288;SDS011;37372;52.294;5.152;2022-12-15T06:58:42;21.73;;;11.18;;
51288;SDS011;37372;52.294;5.152;2022-12-15T07:01:08;23.40;;;10.88;;
51288;SDS011;37372;52.294;5.152;2022-12-15T07:03:33;22.83;;;10.45;;
51288;SDS011;37372;52.294;5.152;2022-12-15T07:06:00;23.08;;;10.63;;
51288;SDS011;37372;52.294;5.152;2022-12-15T07:08:27;27.60;;;11.02;;
51288;SDS011;37372;52.294;5.152;2022-12-15T07:10:52;22.15;;;10.20;;
51288;SDS011;37372;52.294;5.152;2022-12-15T07:13:18;21.58;;;11.02;;
51288;SDS011;37372;52.294;5.152;2022-12-15T07:15:43;17.98;;;10.00;;
51288;SDS011;37372;52.294;5.152;2022-12-15T07:18:09;20.67;;;10.05;;
51288;SDS011;37372;52.294;5.152;2022-12-15T07:20:34;17.85;;;9.93;;
51288;SDS011;37372;52.294;5.152;2022-12-15T07:23:00;18.30;;;10.73;;
51288;SDS011;37372;52.294;5.152;2022-12-15T07:25:31;19.92;;;10.30;;
51288;SDS011;37372;52.294;5.152;2022-12-15T07:27:57;27.70;;;12.70;;
51288;SDS011;37372;52.294;5.152;2022-12-15T07:30:22;26.40;;;12.90;;
51288;SDS011;37372;52.294;5.152;2022-12-15T07:32:48;27.27;;;11.25;;
51288;SDS011;37372;52.294;5.152;2022-12-15T07:35:13;22.27;;;10.90;;
51288;SDS011;37372;52.294;5.152;2022-12-15T07:37:39;15.88;;;8.88;;
51288;SDS011;37372;52.294;5.152;2022-12-15T07:40:05;19.55;;;10.88;;
51288;SDS011;37372;52.294;5.152;2022-12-15T07:42:31;21.67;;;11.52;;
51288;SDS011;37372;52.294;5.152;2022-12-15T07:44:57;23.50;;;12.27;;
51288;SDS011;37372;52.294;5.152;2022-12-15T07:47:22;24.63;;;12.07;;
51288;SDS011;37372;52.294;5.152;2022-12-15T07:49:48;23.40;;;11.70;;
51288;SDS011;37372;52.294;5.152;2022-12-15T07:52:14;21.42;;;11.18;;
51288;SDS011;37372;52.294;5.152;2022-12-15T07:54:39;22.20;;;12.98;;
51288;SDS011;37372;52.294;5.152;2022-12-15T07:57:05;19.15;;;10.90;;
51288;SDS011;37372;52.294;5.152;2022-12-15T07:59:33;19.40;;;11.30;;
51288;SDS011;37372;52.294;5.152;2022-12-15T08:01:59;18.73;;;10.85;;
51288;SDS011;37372;52.294;5.152;2022-12-15T08:04:25;17.50;;;10.40;;
51288;SDS011;37372;52.294;5.152;2022-12-15T08:06:54;20.75;;;11.07;;
51288;SDS011;37372;52.294;5.152;2022-12-15T08:09:19;19.73;;;10.50;;
51288;SDS011;37372;52.294;5.152;2022-12-15T08:11:45;26.33;;;12.85;;
51288;SDS011;37372;52.294;5.152;2022-12-15T08:14:10;22.65;;;10.30;;
51288;SDS011;37372;52.294;5.152;2022-12-15T08:16:36;22.48;;;12.15;;
51288;SDS011;37372;52.294;5.152;2022-12-15T08:19:02;19.77;;;11.35;;
51288;SDS011;37372;52.294;5.152;2022-12-15T08:21:29;22.40;;;12.80;;
51288;SDS011;37372;52.294;5.152;2022-12-15T08:23:55;26.60;;;14.30;;
51288;SDS011;37372;52.294;5.152;2022-12-15T08:26:22;23.98;;;13.35;;
51288;SDS011;37372;52.294;5.152;2022-12-15T08:28:47;22.38;;;13.15;;
51288;SDS011;37372;52.294;5.152;2022-12-15T08:31:17;27.52;;;13.68;;
51288;SDS011;37372;52.294;5.152;2022-12-15T08:33:44;23.48;;;12.70;;
51288;SDS011;37372;52.294;5.152;2022-12-15T08:36:11;28.02;;;13.43;;
51288;SDS011;37372;52.294;5.152;2022-12-15T08:38:38;23.95;;;12.93;;
51288;SDS011;37372;52.294;5.152;2022-12-15T08:41:09;22.58;;;12.15;;
51288;SDS011;37372;52.294;5.152;2022-12-15T08:43:37;25.02;;;12.88;;
51288;SDS011;37372;52.294;5.152;2022-12-15T08:46:03;22.08;;;11.85;;
51288;SDS011;37372;52.294;5.152;2022-12-15T08:48:28;21.50;;;11.70;;
51288;SDS011;37372;52.294;5.152;2022-12-15T08:50:54;25.33;;;12.30;;
51288;SDS011;37372;52.294;5.152;2022-12-15T08:53:20;19.17;;;12.32;;
51288;SDS011;37372;52.294;5.152;2022-12-15T08:55:46;23.15;;;12.82;;
51288;SDS011;37372;52.294;5.152;2022-12-15T08:58:11;21.17;;;12.73;;
51288;SDS011;37372;52.294;5.152;2022-12-15T09:00:37;21.65;;;12.13;;
51288;SDS011;37372;52.294;5.152;2022-12-15T09:03:02;21.25;;;12.13;;
51288;SDS011;37372;52.294;5.152;2022-12-15T09:05:27;19.38;;;11.32;;
51288;SDS011;37372;52.294;5.152;2022-12-15T09:07:56;29.45;;;13.15;;
51288;SDS011;37372;52.294;5.152;2022-12-15T09:10:23;20.40;;;12.63;;
51288;SDS011;37372;52.294;5.152;2022-12-15T09:12:49;25.00;;;12.75;;
51288;SDS011;37372;52.294;5.152;2022-12-15T09:15:14;20.83;;;12.05;;
51288;SDS011;37372;52.294;5.152;2022-12-15T09:17:41;25.35;;;12.85;;
51288;SDS011;37372;52.294;5.152;2022-12-15T09:20:06;20.50;;;12.18;;
51288;SDS011;37372;52.294;5.152;2022-12-15T09:22:33;20.35;;;12.98;;
51288;SDS011;37372;52.294;5.152;2022-12-15T09:24:58;21.85;;;12.50;;
51288;SDS011;37372;52.294;5.152;2022-12-15T09:27:23;21.23;;;12.23;;
51288;SDS011;37372;52.294;5.152;2022-12-15T09:29:49;22.50;;;13.15;;
51288;SDS011;37372;52.294;5.152;2022-12-15T09:32:14;20.90;;;12.27;;
51288;SDS011;37372;52.294;5.152;2022-12-15T09:34:39;29.92;;;13.68;;
51288;SDS011;37372;52.294;5.152;2022-12-15T09:37:05;31.83;;;14.20;;
51288;SDS011;37372;52.294;5.152;2022-12-15T09:39:31;32.55;;;14.93;;
51288;SDS011;37372;52.294;5.152;2022-12-15T09:41:59;22.83;;;12.88;;
51288;SDS011;37372;52.294;5.152;2022-12-15T09:44:26;23.42;;;12.02;;
51288;SDS011;37372;52.294;5.152;2022-12-15T09:47:15;22.23;;;11.07;;
51288;SDS011;37372;52.294;5.152;2022-12-15T09:49:59;23.75;;;12.85;;
51288;SDS011;37372;52.294;5.152;2022-12-15T09:52:32;18.60;;;12.25;;
51288;SDS011;37372;52.294;5.152;2022-12-15T09:55:12;24.35;;;12.98;;
51288;SDS011;37372;52.294;5.152;2022-12-15T09:57:43;24.92;;;12.13;;
51288;SDS011;37372;52.294;5.152;2022-12-15T10:00:18;23.15;;;11.82;;
51288;SDS011;37372;52.294;5.152;2022-12-15T10:05:49;27.52;;;14.32;;
51288;SDS011;37372;52.294;5.152;2022-12-15T10:08:30;21.27;;;11.65;;
51288;SDS011;37372;52.294;5.152;2022-12-15T10:10:59;17.88;;;11.75;;
51288;SDS011;37372;52.294;5.152;2022-12-15T10:13:29;18.10;;;10.63;;
51288;SDS011;37372;52.294;5.152;2022-12-15T10:16:07;23.95;;;11.25;;
51288;SDS011;37372;52.294;5.152;2022-12-15T10:18:48;22.02;;;12.07;;
51288;SDS011;37372;52.294;5.152;2022-12-15T10:21:19;20.17;;;12.48;;
51288;SDS011;37372;52.294;5.152;2022-12-15T10:23:47;26.42;;;13.55;;
51288;SDS011;37372;52.294;5.152;2022-12-15T10:28:47;24.17;;;11.85;;
51288;SDS011;37372;52.294;5.152;2022-12-15T10:31:49;21.85;;;11.65;;
51288;SDS011;37372;52.294;5.152;2022-12-15T10:34:24;22.13;;;12.82;;
51288;SDS011;37372;52.294;5.152;2022-12-15T10:36:56;23.52;;;11.90;;
51288;SDS011;37372;52.294;5.152;2022-12-15T10:39:22;23.08;;;12.68;;
51288;SDS011;37372;52.294;5.152;2022-12-15T10:44:45;31.27;;;13.82;;
51288;SDS011;37372;52.294;5.152;2022-12-15T10:47:16;25.50;;;13.18;;
51288;SDS011;37372;52.294;5.152;2022-12-15T10:49:52;29.75;;;13.55;;
51288;SDS011;37372;52.294;5.152;2022-12-15T10:52:23;24.48;;;13.55;;
51288;SDS011;37372;52.294;5.152;2022-12-15T10:54:52;23.27;;;11.38;;
51288;SDS011;37372;52.294;5.152;2022-12-15T10:59:52;21.42;;;12.77;;
51288;SDS011;37372;52.294;5.152;2022-12-15T11:05:04;27.80;;;15.00;;
51288;SDS011;37372;52.294;5.152;2022-12-15T11:07:46;28.88;;;14.32;;
51288;SDS011;37372;52.294;5.152;2022-12-15T11:17:46;24.00;;;13.65;;
51288;SDS011;37372;52.294;5.152;2022-12-15T11:20:19;18.55;;;11.52;;
51288;SDS011;37372;52.294;5.152;2022-12-15T11:22:52;23.35;;;12.93;;
51288;SDS011;37372;52.294;5.152;2022-12-15T11:27:50;26.63;;;13.07;;
51288;SDS011;37372;52.294;5.152;2022-12-15T11:30:20;24.48;;;12.85;;
51288;SDS011;37372;52.294;5.152;2022-12-15T11:32:49;20.92;;;11.80;;
51288;SDS011;37372;52.294;5.152;2022-12-15T11:40:39;30.20;;;14.30;;
51288;SDS011;37372;52.294;5.152;2022-12-15T11:43:12;26.05;;;14.98;;
51288;SDS011;37372;52.294;5.152;2022-12-15T11:48:34;23.15;;;12.82;;
51288;SDS011;37372;52.294;5.152;2022-12-15T11:51:24;29.08;;;13.40;;
51288;SDS011;37372;52.294;5.152;2022-12-15T11:54:14;26.27;;;14.20;;
51288;SDS011;37372;52.294;5.152;2022-12-15T12:07:48;24.02;;;12.95;;
51288;SDS011;37372;52.294;5.152;2022-12-15T12:16:20;23.98;;;14.23;;
51288;SDS011;37372;52.294;5.152;2022-12-15T12:18:59;29.52;;;13.95;;
51288;SDS011;37372;52.294;5.152;2022-12-15T12:21:34;25.80;;;14.35;;
51288;SDS011;37372;52.294;5.152;2022-12-15T12:26:55;29.05;;;15.32;;
51288;SDS011;37372;52.294;5.152;2022-12-15T12:34:35;25.48;;;12.60;;
51288;SDS011;37372;52.294;5.152;2022-12-15T12:37:33;27.58;;;14.73;;
51288;SDS011;37372;52.294;5.152;2022-12-15T12:40:02;26.63;;;13.50;;
51288;SDS011;37372;52.294;5.152;2022-12-15T12:42:53;27.13;;;14.13;;
51288;SDS011;37372;52.294;5.152;2022-12-15T12:45:36;28.15;;;13.70;;
51288;SDS011;37372;52.294;5.152;2022-12-15T12:48:06;22.98;;;13.73;;
51288;SDS011;37372;52.294;5.152;2022-12-15T12:51:06;23.25;;;13.10;;
51288;SDS011;37372;52.294;5.152;2022-12-15T12:53:38;22.85;;;14.45;;
51288;SDS011;37372;52.294;5.152;2022-12-15T12:56:03;24.73;;;13.85;;
51288;SDS011;37372;52.294;5.152;2022-12-15T13:03:38;25.73;;;14.07;;
51288;SDS011;37372;52.294;5.152;2022-12-15T13:06:37;24.13;;;15.00;;
51288;SDS011;37372;52.294;5.152;2022-12-15T13:11:51;29.13;;;13.52;;
51288;SDS011;37372;52.294;5.152;2022-12-15T13:14:30;26.42;;;14.23;;
51288;SDS011;37372;52.294;5.152;2022-12-15T13:17:26;27.65;;;13.52;;
51288;SDS011;37372;52.294;5.152;2022-12-15T13:22:32;24.85;;;13.93;;
51288;SDS011;37372;52.294;5.152;2022-12-15T13:25:00;33.22;;;14.45;;
51288;SDS011;37372;52.294;5.152;2022-12-15T13:27:36;27.98;;;14.85;;
51288;SDS011;37372;52.294;5.152;2022-12-15T13:32:40;25.17;;;14.38;;
51288;SDS011;37372;52.294;5.152;2022-12-15T13:37:46;30.08;;;14.88;;
51288;SDS011;37372;52.294;5.152;2022-12-15T13:40:30;21.95;;;13.60;;
51288;SDS011;37372;52.294;5.152;2022-12-15T13:44:00;32.08;;;15.43;;
51288;SDS011;37372;52.294;5.152;2022-12-15T13:46:22;22.85;;;14.65;;
51288;SDS011;37372;52.294;5.152;2022-12-15T13:48:50;27.85;;;15.20;;
51288;SDS011;37372;52.294;5.152;2022-12-15T13:54:01;27.08;;;14.18;;
51288;SDS011;37372;52.294;5.152;2022-12-15T13:56:40;26.60;;;14.30;;
51288;SDS011;37372;52.294;5.152;2022-12-15T14:08:00;27.90;;;15.50;;
51288;SDS011;37372;52.294;5.152;2022-12-15T14:10:49;28.23;;;15.45;;
51288;SDS011;37372;52.294;5.152;2022-12-15T14:13:26;32.72;;;16.60;;
51288;SDS011;37372;52.294;5.152;2022-12-15T14:15:55;34.45;;;16.40;;
51288;SDS011;37372;52.294;5.152;2022-12-15T14:18:30;29.33;;;16.83;;
51288;SDS011;37372;52.294;5.152;2022-12-15T14:20:56;32.35;;;16.15;;
51288;SDS011;37372;52.294;5.152;2022-12-15T14:23:24;26.45;;;15.80;;
51288;SDS011;37372;52.294;5.152;2022-12-15T14:25:53;33.78;;;15.95;;
51288;SDS011;37372;52.294;5.152;2022-12-15T14:28:23;27.23;;;16.60;;
51288;SDS011;37372;52.294;5.152;2022-12-15T14:30:56;28.85;;;16.58;;
51288;SDS011;37372;52.294;5.152;2022-12-15T14:33:24;31.08;;;17.25;;
51288;SDS011;37372;52.294;5.152;2022-12-15T14:35:50;30.90;;;17.42;;
51288;SDS011;37372;52.294;5.152;2022-12-15T14:40:50;28.90;;;16.58;;
51288;SDS011;37372;52.294;5.152;2022-12-15T14:43:24;29.15;;;17.23;;
51288;SDS011;37372;52.294;5.152;2022-12-15T14:45:53;31.45;;;17.40;;
51288;SDS011;37372;52.294;5.152;2022-12-15T14:48:24;32.80;;;16.00;;
51288;SDS011;37372;52.294;5.152;2022-12-15T14:50:53;33.13;;;17.60;;
51288;SDS011;37372;52.294;5.152;2022-12-15T14:53:23;27.13;;;16.98;;
51288;SDS011;37372;52.294;5.152;2022-12-15T14:55:53;24.65;;;15.88;;
51288;SDS011;37372;52.294;5.152;2022-12-15T14:58:30;33.85;;;16.05;;
51288;SDS011;37372;52.294;5.152;2022-12-15T15:00:58;32.40;;;17.42;;
51288;SDS011;37372;52.294;5.152;2022-12-15T15:03:37;47.55;;;18.45;;
51288;SDS011;37372;52.294;5.152;2022-12-15T15:08:44;28.92;;;17.23;;
51288;SDS011;37372;52.294;5.152;2022-12-15T15:11:25;26.17;;;16.60;;
51288;SDS011;37372;52.294;5.152;2022-12-15T15:13:56;31.35;;;16.38;;
51288;SDS011;37372;52.294;5.152;2022-12-15T15:16:24;28.80;;;16.08;;
51288;SDS011;37372;52.294;5.152;2022-12-15T15:18:50;26.75;;;15.50;;
51288;SDS011;37372;52.294;5.152;2022-12-15T15:21:25;27.92;;;16.30;;
51288;SDS011;37372;52.294;5.152;2022-12-15T15:24:00;30.38;;;15.90;;
51288;SDS011;37372;52.294;5.152;2022-12-15T15:26:28;42.45;;;18.77;;
51288;SDS011;37372;52.294;5.152;2022-12-15T15:28:54;25.40;;;16.75;;
51288;SDS011;37372;52.294;5.152;2022-12-15T15:31:24;28.08;;;17.48;;
51288;SDS011;37372;52.294;5.152;2022-12-15T15:33:52;35.20;;;18.90;;
51288;SDS011;37372;52.294;5.152;2022-12-15T15:36:22;34.28;;;18.05;;
51288;SDS011;37372;52.294;5.152;2022-12-15T15:38:52;34.55;;;19.45;;
51288;SDS011;37372;52.294;5.152;2022-12-15T15:41:19;38.00;;;19.08;;
51288;SDS011;37372;52.294;5.152;2022-12-15T15:43:46;32.72;;;18.08;;
51288;SDS011;37372;52.294;5.152;2022-12-15T15:46:12;33.03;;;18.83;;
51288;SDS011;37372;52.294;5.152;2022-12-15T15:48:49;35.50;;;18.77;;
51288;SDS011;37372;52.294;5.152;2022-12-15T15:51:37;28.20;;;17.88;;
51288;SDS011;37372;52.294;5.152;2022-12-15T15:54:06;33.30;;;18.88;;
51288;SDS011;37372;52.294;5.152;2022-12-15T15:56:36;35.13;;;20.85;;
51288;SDS011;37372;52.294;5.152;2022-12-15T15:59:12;35.03;;;20.48;;
51288;SDS011;37372;52.294;5.152;2022-12-15T16:01:40;31.83;;;18.73;;
51288;SDS011;37372;52.294;5.152;2022-12-15T16:04:06;39.38;;;19.98;;
51288;SDS011;37372;52.294;5.152;2022-12-15T16:06:31;37.15;;;19.95;;
51288;SDS011;37372;52.294;5.152;2022-12-15T16:08:57;41.80;;;21.48;;
51288;SDS011;37372;52.294;5.152;2022-12-15T16:11:24;35.83;;;19.77;;
51288;SDS011;37372;52.294;5.152;2022-12-15T16:13:51;37.33;;;21.98;;
51288;SDS011;37372;52.294;5.152;2022-12-15T16:16:18;49.60;;;22.20;;
51288;SDS011;37372;52.294;5.152;2022-12-15T16:18:45;37.42;;;22.02;;
51288;SDS011;37372;52.294;5.152;2022-12-15T16:21:11;34.38;;;19.80;;
51288;SDS011;37372;52.294;5.152;2022-12-15T16:23:38;38.53;;;20.92;;
51288;SDS011;37372;52.294;5.152;2022-12-15T16:26:04;37.10;;;22.80;;
51288;SDS011;37372;52.294;5.152;2022-12-15T16:28:32;38.45;;;22.63;;
51288;SDS011;37372;52.294;5.152;2022-12-15T16:30:58;35.67;;;22.40;;
51288;SDS011;37372;52.294;5.152;2022-12-15T16:33:23;33.08;;;20.80;;
51288;SDS011;37372;52.294;5.152;2022-12-15T16:35:49;37.45;;;22.75;;
51288;SDS011;37372;52.294;5.152;2022-12-15T16:38:27;38.33;;;22.52;;
51288;SDS011;37372;52.294;5.152;2022-12-15T16:40:54;40.92;;;23.45;;
51288;SDS011;37372;52.294;5.152;2022-12-15T16:43:23;42.40;;;23.85;;
51288;SDS011;37372;52.294;5.152;2022-12-15T16:45:50;49.85;;;24.40;;
51288;SDS011;37372;52.294;5.152;2022-12-15T16:48:16;38.25;;;24.08;;